Terminal Aerodrome Forecast
Issued by NWS Atlanta, GA

Home | Current Version | Previous Version | Text Only | Print | Product List | Glossary On
Versions: 1 2 3 4 5 6 7 8 9 10 11 12 13 14 15 16 17 18 19 20
168
FTUS42 KFFC 281743
TAFCSG
TAF
KCSG 281743Z 2818/2918 27010G18KT P6SM SCT045
     FM290100 26007KT P6SM SCT050 BKN100
     FM290600 26006KT P6SM SCT250
     FM291500 28010KT P6SM SCT040=

USA.gov is the U.S. government's official web portal to all federal, state and local government web resources and services.